sensor_id;sensor_type;location;lat;lon;timestamp;P1;durP1;ratioP1;P2;durP2;ratioP2
75914;SDS011;64593;51.050;13.780;2023-06-04T06:02:03;2.60;;;1.23;;
75914;SDS011;64593;51.050;13.780;2023-06-04T06:07:13;2.72;;;1.00;;
75914;SDS011;64593;51.050;13.780;2023-06-04T06:12:17;3.92;;;1.25;;
75914;SDS011;64593;51.050;13.780;2023-06-04T06:17:44;3.88;;;1.60;;
75914;SDS011;64593;51.050;13.780;2023-06-04T06:22:48;4.63;;;1.13;;
75914;SDS011;64593;51.050;13.780;2023-06-04T06:27:52;4.35;;;1.35;;
75914;SDS011;64593;51.050;13.780;2023-06-04T06:32:56;6.10;;;1.35;;
75914;SDS011;64593;51.050;13.780;2023-06-04T06:37:58;2.40;;;1.00;;
75914;SDS011;64593;51.050;13.780;2023-06-04T06:43:02;5.53;;;1.30;;
75914;SDS011;64593;51.050;13.780;2023-06-04T06:48:05;6.32;;;1.40;;
75914;SDS011;64593;51.050;13.780;2023-06-04T06:53:07;8.00;;;1.30;;
75914;SDS011;64593;51.050;13.780;2023-06-04T06:58:09;5.55;;;1.20;;
75914;SDS011;64593;51.050;13.780;2023-06-04T07:03:11;2.70;;;1.30;;
75914;SDS011;64593;51.050;13.780;2023-06-04T07:08:15;2.80;;;1.20;;
75914;SDS011;64593;51.050;13.780;2023-06-04T07:13:17;3.28;;;1.50;;
75914;SDS011;64593;51.050;13.780;2023-06-04T07:18:19;2.42;;;1.05;;
75914;SDS011;64593;51.050;13.780;2023-06-04T07:23:21;5.43;;;1.30;;
75914;SDS011;64593;51.050;13.780;2023-06-04T07:28:22;2.83;;;1.27;;
75914;SDS011;64593;51.050;13.780;2023-06-04T07:33:26;2.67;;;1.02;;
75914;SDS011;64593;51.050;13.780;2023-06-04T07:38:29;6.78;;;1.30;;
75914;SDS011;64593;51.050;13.780;2023-06-04T07:43:33;3.47;;;1.20;;
75914;SDS011;64593;51.050;13.780;2023-06-04T07:48:36;2.72;;;1.27;;
75914;SDS011;64593;51.050;13.780;2023-06-04T07:53:38;5.60;;;1.33;;
75914;SDS011;64593;51.050;13.780;2023-06-04T07:58:40;1.80;;;0.80;;
75914;SDS011;64593;51.050;13.780;2023-06-04T08:03:42;4.10;;;1.02;;
75914;SDS011;64593;51.050;13.780;2023-06-04T08:08:46;3.50;;;0.88;;
75914;SDS011;64593;51.050;13.780;2023-06-04T08:13:51;4.93;;;0.98;;
75914;SDS011;64593;51.050;13.780;2023-06-04T08:18:53;1.85;;;0.80;;
75914;SDS011;64593;51.050;13.780;2023-06-04T08:23:55;3.22;;;0.95;;
75914;SDS011;64593;51.050;13.780;2023-06-04T08:28:57;3.38;;;1.05;;
75914;SDS011;64593;51.050;13.780;2023-06-04T08:34:02;3.28;;;0.90;;
75914;SDS011;64593;51.050;13.780;2023-06-04T08:39:06;2.65;;;1.10;;
75914;SDS011;64593;51.050;13.780;2023-06-04T08:44:09;1.75;;;0.82;;
75914;SDS011;64593;51.050;13.780;2023-06-04T08:49:12;5.00;;;0.80;;
75914;SDS011;64593;51.050;13.780;2023-06-04T08:54:18;2.53;;;0.80;;
75914;SDS011;64593;51.050;13.780;2023-06-04T09:04:24;2.55;;;0.60;;
75914;SDS011;64593;51.050;13.780;2023-06-04T09:09:26;2.03;;;0.70;;
75914;SDS011;64593;51.050;13.780;2023-06-04T09:14:34;3.00;;;0.60;;
75914;SDS011;64593;51.050;13.780;2023-06-04T09:19:40;1.67;;;0.60;;
75914;SDS011;64593;51.050;13.780;2023-06-04T09:24:46;3.42;;;0.70;;
75914;SDS011;64593;51.050;13.780;2023-06-04T09:29:51;2.13;;;0.70;;
75914;SDS011;64593;51.050;13.780;2023-06-04T09:40:20;0.95;;;0.38;;
75914;SDS011;64593;51.050;13.780;2023-06-04T09:45:27;2.45;;;0.73;;
75914;SDS011;64593;51.050;13.780;2023-06-04T09:50:35;1.40;;;0.55;;
75914;SDS011;64593;51.050;13.780;2023-06-04T09:55:43;3.33;;;0.77;;
75914;SDS011;64593;51.050;13.780;2023-06-04T10:00:50;2.88;;;0.70;;
75914;SDS011;64593;51.050;13.780;2023-06-04T10:05:58;1.67;;;0.70;;
75914;SDS011;64593;51.050;13.780;2023-06-04T10:11:02;1.75;;;0.75;;
75914;SDS011;64593;51.050;13.780;2023-06-04T10:16:10;2.60;;;0.80;;
75914;SDS011;64593;51.050;13.780;2023-06-04T10:21:21;2.55;;;0.65;;
75914;SDS011;64593;51.050;13.780;2023-06-04T10:26:26;3.42;;;0.80;;
75914;SDS011;64593;51.050;13.780;2023-06-04T10:31:29;3.47;;;0.68;;
75914;SDS011;64593;51.050;13.780;2023-06-04T10:36:41;4.05;;;0.85;;
75914;SDS011;64593;51.050;13.780;2023-06-04T10:42:00;2.08;;;0.70;;
75914;SDS011;64593;51.050;13.780;2023-06-04T10:47:03;1.95;;;0.70;;
75914;SDS011;64593;51.050;13.780;2023-06-04T10:52:12;3.83;;;1.25;;
75914;SDS011;64593;51.050;13.780;2023-06-04T10:57:38;2.35;;;0.88;;
75914;SDS011;64593;51.050;13.780;2023-06-04T11:02:49;1.92;;;0.70;;
75914;SDS011;64593;51.050;13.780;2023-06-04T11:08:01;3.97;;;0.80;;
75914;SDS011;64593;51.050;13.780;2023-06-04T11:13:03;1.98;;;0.60;;
75914;SDS011;64593;51.050;13.780;2023-06-04T11:18:06;1.67;;;0.65;;
75914;SDS011;64593;51.050;13.780;2023-06-04T11:28:35;2.00;;;0.80;;
75914;SDS011;64593;51.050;13.780;2023-06-04T11:33:46;6.13;;;1.13;;
75914;SDS011;64593;51.050;13.780;2023-06-04T11:39:14;4.15;;;0.70;;
75914;SDS011;64593;51.050;13.780;2023-06-04T11:44:20;4.68;;;1.25;;
75914;SDS011;64593;51.050;13.780;2023-06-04T11:49:47;1.58;;;0.90;;
75914;SDS011;64593;51.050;13.780;2023-06-04T11:54:50;1.98;;;0.77;;
75914;SDS011;64593;51.050;13.780;2023-06-04T11:59:54;3.15;;;0.70;;
75914;SDS011;64593;51.050;13.780;2023-06-04T12:04:55;2.78;;;0.82;;
75914;SDS011;64593;51.050;13.780;2023-06-04T12:10:23;3.13;;;1.23;;
75914;SDS011;64593;51.050;13.780;2023-06-04T12:15:56;4.53;;;0.75;;
75914;SDS011;64593;51.050;13.780;2023-06-04T12:21:23;1.85;;;0.73;;
75914;SDS011;64593;51.050;13.780;2023-06-04T12:27:01;2.33;;;0.70;;
75914;SDS011;64593;51.050;13.780;2023-06-04T12:32:08;3.03;;;0.73;;
75914;SDS011;64593;51.050;13.780;2023-06-04T12:37:12;2.45;;;0.40;;
75914;SDS011;64593;51.050;13.780;2023-06-04T12:42:14;2.38;;;0.80;;
75914;SDS011;64593;51.050;13.780;2023-06-04T12:47:41;2.20;;;0.80;;
75914;SDS011;64593;51.050;13.780;2023-06-04T12:52:43;3.67;;;0.88;;
75914;SDS011;64593;51.050;13.780;2023-06-04T12:57:45;4.93;;;0.98;;
75914;SDS011;64593;51.050;13.780;2023-06-04T13:03:14;4.25;;;1.00;;
75914;SDS011;64593;51.050;13.780;2023-06-04T13:08:16;2.47;;;0.68;;
75914;SDS011;64593;51.050;13.780;2023-06-04T13:13:43;1.85;;;0.80;;
75914;SDS011;64593;51.050;13.780;2023-06-04T13:19:10;2.60;;;0.90;;
75914;SDS011;64593;51.050;13.780;2023-06-04T13:24:12;3.78;;;1.00;;
75914;SDS011;64593;51.050;13.780;2023-06-04T13:29:13;2.00;;;0.93;;
75914;SDS011;64593;51.050;13.780;2023-06-04T13:34:17;3.88;;;1.20;;
75914;SDS011;64593;51.050;13.780;2023-06-04T13:39:53;2.95;;;0.90;;
75914;SDS011;64593;51.050;13.780;2023-06-04T13:44:55;4.70;;;0.88;;
75914;SDS011;64593;51.050;13.780;2023-06-04T13:49:56;1.60;;;0.70;;
75914;SDS011;64593;51.050;13.780;2023-06-04T13:54:58;6.93;;;1.00;;
75914;SDS011;64593;51.050;13.780;2023-06-04T14:00:25;2.13;;;0.88;;
75914;SDS011;64593;51.050;13.780;2023-06-04T14:05:27;1.35;;;0.60;;
75914;SDS011;64593;51.050;13.780;2023-06-04T14:15:31;2.75;;;0.93;;
75914;SDS011;64593;51.050;13.780;2023-06-04T14:20:34;5.68;;;0.80;;
75914;SDS011;64593;51.050;13.780;2023-06-04T14:26:02;4.40;;;0.63;;
75914;SDS011;64593;51.050;13.780;2023-06-04T14:31:04;3.30;;;1.08;;
75914;SDS011;64593;51.050;13.780;2023-06-04T14:36:06;2.28;;;0.80;;
75914;SDS011;64593;51.050;13.780;2023-06-04T14:41:08;4.47;;;0.80;;
75914;SDS011;64593;51.050;13.780;2023-06-04T14:46:12;1.52;;;0.70;;
75914;SDS011;64593;51.050;13.780;2023-06-04T14:51:13;3.30;;;0.95;;
75914;SDS011;64593;51.050;13.780;2023-06-04T15:01:20;3.17;;;0.88;;
75914;SDS011;64593;51.050;13.780;2023-06-04T15:06:50;2.40;;;0.73;;
75914;SDS011;64593;51.050;13.780;2023-06-04T15:12:16;2.20;;;0.75;;
75914;SDS011;64593;51.050;13.780;2023-06-04T15:17:44;5.45;;;1.00;;
75914;SDS011;64593;51.050;13.780;2023-06-04T15:23:13;2.30;;;0.77;;
75914;SDS011;64593;51.050;13.780;2023-06-04T15:28:40;3.50;;;0.90;;
75914;SDS011;64593;51.050;13.780;2023-06-04T15:33:42;4.53;;;0.82;;
75914;SDS011;64593;51.050;13.780;2023-06-04T15:38:43;2.03;;;0.90;;
75914;SDS011;64593;51.050;13.780;2023-06-04T15:44:10;2.45;;;0.80;;
75914;SDS011;64593;51.050;13.780;2023-06-04T15:49:14;1.63;;;0.68;;
75914;SDS011;64593;51.050;13.780;2023-06-04T15:54:42;3.92;;;1.27;;
75914;SDS011;64593;51.050;13.780;2023-06-04T16:00:12;2.35;;;0.82;;
75914;SDS011;64593;51.050;13.780;2023-06-04T16:05:39;3.40;;;0.75;;
75914;SDS011;64593;51.050;13.780;2023-06-04T16:10:41;1.67;;;0.90;;
75914;SDS011;64593;51.050;13.780;2023-06-04T16:16:08;2.65;;;0.80;;
75914;SDS011;64593;51.050;13.780;2023-06-04T16:21:35;2.95;;;0.60;;
75914;SDS011;64593;51.050;13.780;2023-06-04T16:32:03;4.32;;;0.90;;
75914;SDS011;64593;51.050;13.780;2023-06-04T16:37:29;3.55;;;0.75;;
75914;SDS011;64593;51.050;13.780;2023-06-04T16:48:01;5.05;;;1.75;;
75914;SDS011;64593;51.050;13.780;2023-06-04T16:53:05;2.00;;;0.82;;
75914;SDS011;64593;51.050;13.780;2023-06-04T16:58:06;2.08;;;0.90;;
75914;SDS011;64593;51.050;13.780;2023-06-04T17:03:12;1.70;;;0.77;;
75914;SDS011;64593;51.050;13.780;2023-06-04T17:08:14;2.75;;;1.08;;
75914;SDS011;64593;51.050;13.780;2023-06-04T17:13:16;2.15;;;0.73;;
75914;SDS011;64593;51.050;13.780;2023-06-04T17:18:43;2.67;;;0.73;;
75914;SDS011;64593;51.050;13.780;2023-06-04T17:24:10;2.38;;;0.93;;
75914;SDS011;64593;51.050;13.780;2023-06-04T17:29:37;1.63;;;0.70;;
75914;SDS011;64593;51.050;13.780;2023-06-04T17:35:04;2.03;;;0.88;;
75914;SDS011;64593;51.050;13.780;2023-06-04T17:40:06;5.32;;;1.27;;
75914;SDS011;64593;51.050;13.780;2023-06-04T17:45:33;3.92;;;1.25;;
75914;SDS011;64593;51.050;13.780;2023-06-04T17:50:35;3.70;;;1.10;;
75914;SDS011;64593;51.050;13.780;2023-06-04T17:56:02;3.83;;;1.50;;
75914;SDS011;64593;51.050;13.780;2023-06-04T18:01:29;8.18;;;2.00;;
75914;SDS011;64593;51.050;13.780;2023-06-04T18:06:56;3.20;;;1.20;;
75914;SDS011;64593;51.050;13.780;2023-06-04T18:12:00;2.17;;;1.25;;
75914;SDS011;64593;51.050;13.780;2023-06-04T18:17:27;3.28;;;1.10;;
75914;SDS011;64593;51.050;13.780;2023-06-04T18:22:30;4.68;;;1.23;;
75914;SDS011;64593;51.050;13.780;2023-06-04T18:27:35;2.60;;;0.90;;
75914;SDS011;64593;51.050;13.780;2023-06-04T18:32:37;7.15;;;1.08;;
75914;SDS011;64593;51.050;13.780;2023-06-04T18:38:04;6.43;;;1.33;;
75914;SDS011;64593;51.050;13.780;2023-06-04T18:43:33;2.88;;;1.00;;
75914;SDS011;64593;51.050;13.780;2023-06-04T18:48:35;4.68;;;1.33;;
75914;SDS011;64593;51.050;13.780;2023-06-04T18:54:05;4.10;;;1.52;;
75914;SDS011;64593;51.050;13.780;2023-06-04T18:59:32;10.85;;;1.27;;
75914;SDS011;64593;51.050;13.780;2023-06-04T19:04:59;2.78;;;1.20;;
75914;SDS011;64593;51.050;13.780;2023-06-04T19:10:01;4.53;;;1.50;;
75914;SDS011;64593;51.050;13.780;2023-06-04T19:15:03;7.18;;;1.50;;
75914;SDS011;64593;51.050;13.780;2023-06-04T19:20:32;5.03;;;1.60;;
75914;SDS011;64593;51.050;13.780;2023-06-04T19:26:00;5.22;;;1.60;;
75914;SDS011;64593;51.050;13.780;2023-06-04T19:31:04;11.57;;;5.75;;
75914;SDS011;64593;51.050;13.780;2023-06-04T19:36:06;15.48;;;6.75;;
75914;SDS011;64593;51.050;13.780;2023-06-04T19:41:09;14.73;;;6.43;;
75914;SDS011;64593;51.050;13.780;2023-06-04T19:46:37;9.00;;;4.00;;
75914;SDS011;64593;51.050;13.780;2023-06-04T19:52:04;10.10;;;3.45;;
75914;SDS011;64593;51.050;13.780;2023-06-04T19:57:06;6.22;;;3.10;;
75914;SDS011;64593;51.050;13.780;2023-06-04T20:02:11;5.72;;;2.63;;
75914;SDS011;64593;51.050;13.780;2023-06-04T20:07:13;4.00;;;1.98;;
75914;SDS011;64593;51.050;13.780;2023-06-04T20:12:15;8.85;;;2.33;;
75914;SDS011;64593;51.050;13.780;2023-06-04T20:17:42;4.93;;;2.58;;
75914;SDS011;64593;51.050;13.780;2023-06-04T20:23:09;7.22;;;2.83;;
75914;SDS011;64593;51.050;13.780;2023-06-04T20:28:36;7.47;;;3.13;;
75914;SDS011;64593;51.050;13.780;2023-06-04T20:33:37;6.30;;;2.85;;
75914;SDS011;64593;51.050;13.780;2023-06-04T20:38:39;4.85;;;2.80;;
75914;SDS011;64593;51.050;13.780;2023-06-04T20:44:06;5.57;;;2.42;;
75914;SDS011;64593;51.050;13.780;2023-06-04T20:49:08;8.52;;;2.70;;
75914;SDS011;64593;51.050;13.780;2023-06-04T20:54:35;7.50;;;2.50;;
75914;SDS011;64593;51.050;13.780;2023-06-04T21:00:03;7.80;;;2.55;;
75914;SDS011;64593;51.050;13.780;2023-06-04T21:05:06;7.63;;;2.60;;
75914;SDS011;64593;51.050;13.780;2023-06-04T21:10:34;4.35;;;2.25;;
75914;SDS011;64593;51.050;13.780;2023-06-04T21:15:36;5.45;;;2.30;;
75914;SDS011;64593;51.050;13.780;2023-06-04T21:21:03;4.97;;;2.58;;
75914;SDS011;64593;51.050;13.780;2023-06-04T21:26:05;5.57;;;2.72;;
75914;SDS011;64593;51.050;13.780;2023-06-04T21:31:32;9.57;;;2.30;;
75914;SDS011;64593;51.050;13.780;2023-06-04T21:36:34;6.43;;;2.05;;
75914;SDS011;64593;51.050;13.780;2023-06-04T21:41:36;5.78;;;2.58;;
75914;SDS011;64593;51.050;13.780;2023-06-04T21:46:37;5.60;;;2.53;;
75914;SDS011;64593;51.050;13.780;2023-06-04T21:52:04;5.40;;;2.33;;
75914;SDS011;64593;51.050;13.780;2023-06-04T21:57:39;3.65;;;2.00;;
